Time;durP1;ratioP1;P1;durP2;ratioP2;P2;SDS_P1;SDS_P2;PMS_P1;PMS_P2;Temp;Humidity;BMP_temperature;BMP_pressure;BME280_temperature;BME280_humidity;BME280_pressure;Samples;Min_cycle;Max_cycle;Signal;HPM_P1;HPM_P2
2023/05/18 01:32:09;;;;;;;11.50;2.35;;;;;;;4.20;100.00;102651.13;5792903;23;20034;-96
2023/05/18 01:39:40;;;;;;;7.75;2.47;;;;;;;4.23;100.00;102659.56;5015408;28;20072;-96
2023/05/18 01:52:45;;;;;;;6.82;2.35;;;;;;;4.22;100.00;102679.13;5145900;23;20059;-96
2023/05/18 01:55:33;;;;;;;8.77;2.10;;;;;;;4.06;100.00;102658.75;4968126;28;20035;-94
2023/05/18 03:25:57;;;;;;;7.97;2.65;;;;;;;3.70;100.00;102647.72;5043902;23;20046;-94
2023/05/18 03:28:29;;;;;;;11.15;2.50;;;;;;;3.58;100.00;102634.78;5011984;28;20034;-93
2023/05/18 03:30:57;;;;;;;11.43;2.90;;;;;;;3.72;100.00;102662.44;4983589;28;20514;-95
2023/05/18 03:33:23;;;;;;;12.90;3.28;;;;;;;3.59;100.00;102640.91;4988719;28;20069;-95
2023/05/18 03:35:48;;;;;;;10.33;2.77;;;;;;;3.70;100.00;102663.63;4957672;28;20026;-95
2023/05/18 03:38:14;;;;;;;8.57;2.40;;;;;;;3.57;100.00;102642.91;4969235;28;20031;-96
2023/05/18 03:57:01;;;;;;;9.97;2.80;;;;;;;3.45;100.00;102640.59;5173165;23;20298;-96
2023/05/18 05:04:11;;;;;;;11.45;4.00;;;;;;;5.43;100.00;102702.78;4970303;28;20086;-92
2023/05/18 05:06:36;;;;;;;12.75;3.72;;;;;;;5.58;100.00;102691.38;4974055;28;20026;-93
2023/05/18 05:09:02;;;;;;;12.30;3.30;;;;;;;5.73;100.00;102696.75;4967450;28;20364;-93
2023/05/18 05:11:28;;;;;;;8.88;3.30;;;;;;;6.01;100.00;102707.69;4954413;28;20117;-91
2023/05/18 05:13:53;;;;;;;10.67;3.33;;;;;;;6.26;100.00;102702.13;4958219;28;20038;-92
2023/05/18 05:16:18;;;;;;;9.40;3.47;;;;;;;6.47;100.00;102701.38;4956756;29;20027;-93
2023/05/18 05:18:43;;;;;;;9.10;3.40;;;;;;;6.97;100.00;102703.44;4957455;29;20083;-92
2023/05/18 05:21:09;;;;;;;12.13;3.30;;;;;;;7.46;99.77;102701.09;4939422;29;20066;-93
2023/05/18 05:23:34;;;;;;;11.80;3.30;;;;;;;7.71;97.18;102707.66;4964565;28;20494;-90
2023/05/18 05:26:00;;;;;;;12.00;3.33;;;;;;;8.00;95.17;102708.53;4980204;28;20049;-93
2023/05/18 05:28:25;;;;;;;6.77;3.07;;;;;;;8.30;92.75;102696.81;4984474;28;20026;-93
2023/05/18 05:30:50;;;;;;;9.27;2.97;;;;;;;8.69;91.00;102713.25;4986558;28;20038;-94
2023/05/18 05:33:16;;;;;;;7.33;2.70;;;;;;;8.83;88.71;102712.28;4998003;28;20011;-91
2023/05/18 05:35:42;;;;;;;8.65;2.72;;;;;;;8.84;87.95;102719.28;4992688;28;20026;-93
2023/05/18 05:38:07;;;;;;;11.13;3.37;;;;;;;8.71;87.53;102708.56;5195436;23;20098;-96
2023/05/18 05:40:33;;;;;;;13.27;3.08;;;;;;;8.63;88.33;102691.66;5017418;28;20022;-95
2023/05/18 05:48:06;;;;;;;10.48;3.00;;;;;;;8.32;86.73;102706.25;4988448;28;20058;-95
2023/05/18 05:50:31;;;;;;;9.77;3.20;;;;;;;8.15;87.83;102713.75;4987536;28;20079;-96
2023/05/18 05:52:58;;;;;;;8.32;2.70;;;;;;;7.92;88.30;102711.31;4994852;28;20023;-95
2023/05/18 05:55:25;;;;;;;9.98;3.00;;;;;;;7.67;90.24;102714.41;4975510;28;20035;-96
2023/05/18 05:57:52;;;;;;;9.07;2.93;;;;;;;7.58;91.14;102715.56;4991856;28;20027;-96
2023/05/18 06:00:20;;;;;;;10.20;3.20;;;;;;;7.43;91.89;102707.59;5305046;23;20312;-96
2023/05/18 06:02:49;;;;;;;6.53;2.53;;;;;;;7.25;92.41;102684.88;5179297;23;20022;-96
2023/05/18 06:05:15;;;;;;;6.80;3.17;;;;;;;7.26;92.10;102699.03;4998673;23;20050;-95
2023/05/18 06:07:41;;;;;;;8.77;3.22;;;;;;;7.35;93.39;102719.22;5012873;28;20054;-96
2023/05/18 06:12:40;;;;;;;10.82;3.40;;;;;;;7.30;92.14;102679.00;4991965;28;20049;-96
2023/05/18 06:15:06;;;;;;;14.10;3.08;;;;;;;7.45;92.60;102696.75;4995116;28;20114;-95
2023/05/18 06:17:33;;;;;;;13.32;3.60;;;;;;;7.54;93.36;102699.13;4961291;28;20012;-95
2023/05/18 06:20:07;;;;;;;8.15;3.38;;;;;;;7.79;93.23;102720.03;4960075;29;20015;-96
2023/05/18 06:22:37;;;;;;;9.85;3.45;;;;;;;7.88;93.05;102712.72;4976974;28;20031;-96
2023/05/18 06:25:04;;;;;;;7.90;3.47;;;;;;;7.87;91.12;102687.03;4980471;29;20035;-96
2023/05/18 06:28:08;;;;;;;14.47;3.40;;;;;;;8.19;91.26;102712.34;4976215;28;20046;-96
2023/05/18 06:31:17;;;;;;;10.53;3.20;;;;;;;8.23;89.36;102699.41;4951006;29;20321;-96
2023/05/18 06:33:47;;;;;;;13.15;3.53;;;;;;;8.34;87.90;102696.22;4978272;29;20027;-96
2023/05/18 06:36:18;;;;;;;12.23;3.38;;;;;;;8.53;87.17;102723.25;4975232;29;20027;-96
2023/05/18 06:38:49;;;;;;;11.57;3.15;;;;;;;8.70;88.49;102729.09;4973895;28;20042;-96
2023/05/18 06:41:18;;;;;;;13.93;3.50;;;;;;;8.78;86.62;102720.06;4991493;23;20466;-94
2023/05/18 06:43:43;;;;;;;9.00;3.33;;;;;;;8.81;85.09;102718.88;4968812;29;20042;-93
2023/05/18 06:46:08;;;;;;;14.10;3.47;;;;;;;8.96;84.83;102726.72;4967325;28;20031;-93
2023/05/18 06:48:35;;;;;;;12.57;3.47;;;;;;;8.98;83.94;102714.81;4953257;29;20038;-94
2023/05/18 06:51:01;;;;;;;9.20;3.05;;;;;;;9.26;84.02;102729.09;4946872;29;20087;-94
2023/05/18 06:53:26;;;;;;;11.02;3.47;;;;;;;9.44;81.51;102726.66;4946092;28;20066;-92
2023/05/18 06:55:52;;;;;;;9.07;2.90;;;;;;;9.60;81.57;102721.94;4942912;29;20020;-93
2023/05/18 06:58:17;;;;;;;15.03;3.40;;;;;;;9.70;81.93;102711.66;4946539;29;20036;-95
2023/05/18 07:00:43;;;;;;;14.07;3.53;;;;;;;9.93;79.69;102726.47;4962936;28;20679;-96
2023/05/18 07:03:08;;;;;;;9.37;3.30;;;;;;;10.06;77.17;102731.00;4963922;28;20187;-94
2023/05/18 07:05:33;;;;;;;11.23;2.88;;;;;;;10.07;77.28;102730.78;4962086;28;20050;-94
2023/05/18 07:08:00;;;;;;;10.30;3.60;;;;;;;10.18;76.57;102725.84;4961561;28;20434;-93
2023/05/18 07:10:27;;;;;;;11.57;3.10;;;;;;;10.29;77.44;102739.44;4953982;29;20119;-94
2023/05/18 07:12:53;;;;;;;17.13;3.80;;;;;;;10.45;75.81;102737.38;4948362;29;20291;-96
2023/05/18 07:15:24;;;;;;;11.68;3.75;;;;;;;10.51;75.84;102739.19;4938796;29;20534;-89
2023/05/18 07:17:49;;;;;;;15.02;4.15;;;;;;;10.67;75.70;102750.50;4942120;29;20042;-95
2023/05/18 07:20:16;;;;;;;14.27;3.80;;;;;;;10.76;73.16;102746.56;4943626;29;20664;-94
2023/05/18 07:22:55;;;;;;;10.38;3.65;;;;;;;10.53;72.28;102709.50;4940384;29;20027;-93
2023/05/18 07:25:22;;;;;;;9.30;3.17;;;;;;;10.73;72.22;102739.75;4957260;28;20027;-92
2023/05/18 07:27:47;;;;;;;9.07;3.22;;;;;;;10.81;75.01;102748.59;4961007;29;20019;-94
2023/05/18 07:30:13;;;;;;;12.00;3.67;;;;;;;10.85;71.50;102747.97;4959838;29;20033;-92
2023/05/18 07:32:39;;;;;;;14.75;3.22;;;;;;;10.93;71.41;102748.75;4964891;28;20020;-94
2023/05/18 07:35:04;;;;;;;7.13;3.20;;;;;;;10.98;72.46;102749.75;4945130;29;20051;-93
2023/05/18 07:37:30;;;;;;;10.70;3.50;;;;;;;11.03;71.27;102749.94;4946038;29;20030;-93
2023/05/18 07:39:55;;;;;;;11.90;4.03;;;;;;;11.15;72.68;102755.47;4950670;28;20049;-94
2023/05/18 07:42:21;;;;;;;8.97;3.10;;;;;;;11.24;72.23;102753.34;4997035;28;20033;-93
2023/05/18 07:44:46;;;;;;;11.65;4.22;;;;;;;11.25;72.31;102757.69;4989748;28;20128;-94
2023/05/18 07:47:12;;;;;;;8.10;3.30;;;;;;;11.39;72.01;102758.44;5002565;28;20022;-94
2023/05/18 07:49:41;;;;;;;12.67;3.37;;;;;;;11.43;70.26;102758.81;4970593;28;20030;-94
2023/05/18 07:52:07;;;;;;;13.68;3.10;;;;;;;11.52;70.16;102760.19;4971168;28;20045;-93
2023/05/18 07:54:33;;;;;;;11.13;3.30;;;;;;;11.45;68.85;102737.94;4973742;28;20094;-93
2023/05/18 07:57:03;;;;;;;8.77;3.23;;;;;;;11.55;68.99;102740.16;4992026;28;20282;-92
2023/05/18 07:59:28;;;;;;;11.45;3.28;;;;;;;11.73;68.16;102744.75;4988789;28;20410;-93
2023/05/18 08:01:57;;;;;;;17.38;3.50;;;;;;;11.74;67.00;102741.88;4996622;28;20023;-93
2023/05/18 08:04:23;;;;;;;13.48;3.58;;;;;;;11.97;66.48;102752.00;4988125;28;20042;-93
2023/05/18 08:06:53;;;;;;;14.23;2.92;;;;;;;12.04;64.34;102753.84;5004987;28;20030;-92
2023/05/18 08:09:23;;;;;;;13.30;3.47;;;;;;;12.03;64.44;102750.34;4983618;28;20042;-94
2023/05/18 08:14:20;;;;;;;11.37;3.27;;;;;;;12.20;63.73;102769.41;4992361;23;20326;-91
2023/05/18 08:16:46;;;;;;;13.07;2.92;;;;;;;12.19;63.95;102769.63;4974798;28;20039;-92
2023/05/18 08:19:11;;;;;;;12.43;3.33;;;;;;;12.13;63.58;102765.97;4971639;28;20023;-93
2023/05/18 08:21:37;;;;;;;10.47;3.13;;;;;;;12.35;62.97;102776.31;4968726;28;20041;-92
2023/05/18 08:24:03;;;;;;;5.78;2.90;;;;;;;12.47;61.55;102765.66;4955977;29;20051;-93
2023/05/18 08:26:28;;;;;;;7.87;2.87;;;;;;;12.57;60.53;102768.63;4952490;28;20069;-93
2023/05/18 08:28:54;;;;;;;10.70;3.70;;;;;;;12.73;60.63;102759.16;4953841;28;20098;-93
2023/05/18 08:31:20;;;;;;;15.07;3.00;;;;;;;12.99;61.58;102762.53;4954840;29;20593;-94
2023/05/18 08:33:45;;;;;;;9.50;2.95;;;;;;;13.08;58.43;102761.19;4938866;29;20037;-92
2023/05/18 08:36:11;;;;;;;10.83;2.90;;;;;;;13.31;59.05;102765.03;4961117;28;20407;-94
2023/05/18 08:38:36;;;;;;;12.00;3.40;;;;;;;13.48;58.22;102763.34;4975495;28;20133;-93
2023/05/18 08:41:21;;;;;;;14.20;3.17;;;;;;;13.63;61.14;102748.63;4958370;28;20038;-94
2023/05/18 08:43:58;;;;;;;8.40;2.83;;;;;;;13.82;57.80;102748.53;4954896;29;20123;-93
2023/05/18 08:46:39;;;;;;;12.38;3.75;;;;;;;13.99;55.58;102743.25;4956045;28;20475;-94
2023/05/18 08:49:05;;;;;;;11.43;3.00;;;;;;;13.82;55.46;102743.97;4938438;29;20372;-94
2023/05/18 08:51:35;;;;;;;10.13;3.77;;;;;;;13.63;56.39;102737.84;4936750;29;20078;-93
2023/05/18 08:54:02;;;;;;;11.43;3.05;;;;;;;13.75;55.77;102752.16;4956347;29;20098;-93
2023/05/18 08:56:30;;;;;;;9.80;2.83;;;;;;;13.80;52.75;102739.88;4938894;29;20471;-93
2023/05/18 08:58:57;;;;;;;7.72;3.00;;;;;;;13.91;53.50;102747.97;4955698;29;20490;-93
2023/05/18 09:01:30;;;;;;;9.07;2.90;;;;;;;14.13;52.79;102744.69;4934877;29;20090;-91
2023/05/18 09:03:56;;;;;;;15.20;3.05;;;;;;;14.37;53.44;102745.50;4942333;28;20479;-92
2023/05/18 09:06:27;;;;;;;9.73;2.67;;;;;;;14.44;51.18;102744.53;4938349;29;20023;-93
2023/05/18 09:08:54;;;;;;;10.30;2.78;;;;;;;14.47;51.28;102746.75;4958397;29;20032;-94
2023/05/18 09:11:21;;;;;;;9.55;2.60;;;;;;;14.69;48.37;102737.00;4954126;28;20031;-93
2023/05/18 09:13:48;;;;;;;10.03;3.23;;;;;;;14.89;48.49;102738.47;4959940;28;20027;-94
2023/05/18 09:16:13;;;;;;;9.57;2.83;;;;;;;14.99;51.41;102737.84;4962115;28;20302;-94
2023/05/18 09:18:39;;;;;;;9.10;2.72;;;;;;;15.16;48.83;102742.47;4962850;28;20537;-94
2023/05/18 09:21:05;;;;;;;9.57;2.70;;;;;;;15.35;50.18;102733.09;4956554;28;20032;-95
2023/05/18 09:23:31;;;;;;;14.68;3.40;;;;;;;15.67;48.12;102743.34;4942923;29;20483;-94
2023/05/18 09:25:57;;;;;;;9.33;3.00;;;;;;;15.55;45.54;102737.22;4964917;29;20031;-94
2023/05/18 09:28:32;;;;;;;10.60;2.83;;;;;;;15.43;46.73;102742.69;4947346;29;20038;-94
2023/05/18 09:30:58;;;;;;;9.90;3.10;;;;;;;15.16;46.44;102732.47;4954708;28;20059;-94
2023/05/18 09:33:24;;;;;;;9.75;2.83;;;;;;;15.15;46.28;102730.88;4976057;28;20030;-94
2023/05/18 09:35:50;;;;;;;10.63;2.80;;;;;;;15.35;46.74;102732.25;4970751;28;20035;-94
2023/05/18 09:38:21;;;;;;;11.03;3.27;;;;;;;15.33;47.10;102729.00;4987561;28;20018;-94
2023/05/18 09:40:48;;;;;;;9.17;2.80;;;;;;;15.38;46.53;102731.78;4954340;29;20285;-93
2023/05/18 09:43:16;;;;;;;10.70;3.08;;;;;;;15.41;46.79;102725.91;4949808;29;20042;-95
2023/05/18 09:45:43;;;;;;;9.30;3.10;;;;;;;15.58;46.40;102728.63;4944394;29;20384;-94
2023/05/18 09:48:09;;;;;;;7.55;2.95;;;;;;;15.53;46.34;102723.13;4941702;29;20027;-95
2023/05/18 09:50:36;;;;;;;11.57;3.20;;;;;;;15.63;46.87;102734.09;4941008;29;20018;-93
2023/05/18 09:53:02;;;;;;;11.48;3.45;;;;;;;15.75;46.16;102729.44;4946705;29;20111;-92
2023/05/18 09:55:27;;;;;;;11.20;3.25;;;;;;;15.76;45.90;102741.06;4948561;29;20016;-93
2023/05/18 09:57:55;;;;;;;15.87;3.60;;;;;;;15.72;45.39;102724.53;4947679;29;20023;-90
2023/05/18 10:00:20;;;;;;;11.15;2.88;;;;;;;15.74;45.18;102735.06;4958187;28;20023;-93
2023/05/18 10:02:51;;;;;;;10.30;3.23;;;;;;;15.83;47.06;102728.19;4942751;29;20506;-94
2023/05/18 10:05:38;;;;;;;8.57;3.30;;;;;;;15.85;46.90;102717.13;4937331;29;20042;-92
2023/05/18 10:08:12;;;;;;;11.52;3.05;;;;;;;15.74;46.17;102703.47;4946572;29;20035;-95
2023/05/18 10:10:39;;;;;;;14.88;3.10;;;;;;;15.81;44.89;102708.69;4947752;29;20515;-94
2023/05/18 10:13:20;;;;;;;9.30;2.70;;;;;;;15.71;46.24;102701.25;4942127;29;20091;-94
2023/05/18 10:15:52;;;;;;;9.02;2.78;;;;;;;15.79;44.23;102707.31;4962726;28;20027;-94
2023/05/18 10:18:21;;;;;;;10.20;3.08;;;;;;;15.80;44.55;102719.75;4938670;28;20035;-96
2023/05/18 10:20:48;;;;;;;9.60;2.80;;;;;;;15.76;43.90;102700.50;4964777;28;20039;-96
2023/05/18 10:23:14;;;;;;;8.77;2.73;;;;;;;15.89;45.57;102705.59;4947136;28;20643;-95
2023/05/18 10:25:43;;;;;;;11.85;3.15;;;;;;;15.96;45.22;102712.72;4976121;28;20034;-96
2023/05/18 10:28:10;;;;;;;11.60;2.65;;;;;;;15.98;44.73;102691.66;4965265;28;20046;-96
2023/05/18 10:30:39;;;;;;;10.63;2.83;;;;;;;15.89;46.64;102683.16;4942984;29;20070;-96
2023/05/18 10:33:05;;;;;;;7.22;2.90;;;;;;;15.86;43.98;102706.13;4966387;28;20038;-96
2023/05/18 10:35:31;;;;;;;8.88;2.50;;;;;;;15.87;44.16;102696.94;4964092;29;20386;-96
2023/05/18 10:38:07;;;;;;;11.38;3.08;;;;;;;16.07;46.18;102695.56;4966535;28;20048;-95
2023/05/18 10:40:44;;;;;;;8.07;2.75;;;;;;;16.34;45.19;102700.25;4937116;29;20055;-96
2023/05/18 10:43:11;;;;;;;7.90;2.90;;;;;;;16.49;44.63;102692.31;4948305;29;20016;-96
2023/05/18 10:45:38;;;;;;;9.63;3.07;;;;;;;16.48;43.19;102695.28;4929698;29;20287;-95
2023/05/18 10:48:08;;;;;;;10.48;3.13;;;;;;;16.46;43.11;102692.81;4943967;29;20024;-95
2023/05/18 10:50:35;;;;;;;8.00;3.30;;;;;;;16.21;43.03;102687.91;4950185;29;20062;-95
2023/05/18 10:53:02;;;;;;;8.23;3.10;;;;;;;16.06;43.07;102696.66;4962489;28;20023;-95
2023/05/18 10:55:29;;;;;;;11.48;3.22;;;;;;;16.09;42.90;102696.13;4956405;29;20475;-96
2023/05/18 10:58:04;;;;;;;10.20;3.10;;;;;;;16.16;43.17;102690.53;4959328;28;20086;-95
2023/05/18 11:00:34;;;;;;;12.02;3.85;;;;;;;16.15;42.65;102697.06;4951972;29;20424;-94
2023/05/18 11:03:00;;;;;;;11.00;3.78;;;;;;;16.10;42.92;102689.66;4943380;29;20019;-94
2023/05/18 11:05:26;;;;;;;15.40;4.28;;;;;;;16.23;43.59;102677.66;4961539;29;20031;-96
2023/05/18 11:08:03;;;;;;;11.47;3.70;;;;;;;16.52;43.86;102680.19;4961532;28;20058;-96
2023/05/18 11:10:41;;;;;;;13.07;4.07;;;;;;;16.64;42.74;102694.41;4967158;29;20038;-96
2023/05/18 11:13:12;;;;;;;11.15;3.20;;;;;;;16.70;41.87;102676.31;4944691;29;20069;-95
2023/05/18 11:15:53;;;;;;;11.93;3.70;;;;;;;16.86;43.32;102685.44;4943399;29;20031;-94
2023/05/18 11:18:18;;;;;;;7.97;4.00;;;;;;;16.76;42.03;102674.47;4942036;29;20043;-96
2023/05/18 11:20:50;;;;;;;9.93;3.30;;;;;;;16.94;41.97;102679.53;4946245;29;20160;-96
2023/05/18 11:23:19;;;;;;;12.48;3.80;;;;;;;16.98;41.71;102681.78;4959518;29;20051;-96
2023/05/18 11:25:47;;;;;;;7.93;3.10;;;;;;;17.27;42.14;102690.44;4945382;29;20024;-96
2023/05/18 11:28:13;;;;;;;10.38;3.60;;;;;;;17.41;40.97;102683.50;4944750;29;20020;-96
2023/05/18 11:30:44;;;;;;;12.90;3.78;;;;;;;17.46;41.57;102676.50;4941930;29;20027;-96
2023/05/18 11:33:14;;;;;;;11.53;3.60;;;;;;;17.54;42.10;102678.72;4940310;29;20500;-96
2023/05/18 11:36:10;;;;;;;9.87;3.50;;;;;;;17.66;41.83;102671.22;4938541;29;20292;-96
2023/05/18 11:38:46;;;;;;;7.50;3.60;;;;;;;17.78;41.71;102679.16;4943086;29;20043;-96
2023/05/18 11:41:41;;;;;;;8.00;3.95;;;;;;;17.72;40.92;102658.50;4940466;29;20038;-95
2023/05/18 11:44:15;;;;;;;8.23;4.25;;;;;;;17.70;41.69;102663.38;4933609;29;20051;-96
2023/05/18 11:47:01;;;;;;;12.85;3.70;;;;;;;17.69;40.76;102662.56;4955870;28;20119;-93
2023/05/18 11:49:37;;;;;;;6.70;3.30;;;;;;;17.62;41.72;102661.97;4939576;29;20114;-94
2023/05/18 11:52:12;;;;;;;12.10;4.10;;;;;;;17.35;40.30;102653.91;4933658;29;20032;-92
2023/05/18 11:54:47;;;;;;;11.07;3.78;;;;;;;17.43;41.89;102652.63;4935437;29;20424;-92
2023/05/18 11:57:14;;;;;;;9.52;3.55;;;;;;;17.07;40.58;102642.34;4935430;29;20043;-92
2023/05/18 11:59:42;;;;;;;6.70;3.67;;;;;;;16.90;40.09;102659.47;4935085;29;20038;-92
2023/05/18 12:02:11;;;;;;;7.80;3.50;;;;;;;16.59;40.07;102636.69;4945720;28;20362;-91
2023/05/18 12:04:54;;;;;;;8.13;3.63;;;;;;;16.47;41.06;102651.16;4919356;29;20024;-92
2023/05/18 12:07:22;;;;;;;7.70;3.60;;;;;;;16.35;41.12;102651.31;4942115;29;20036;-92
2023/05/18 12:09:48;;;;;;;8.32;3.60;;;;;;;16.61;42.47;102646.19;4933777;29;20135;-92
2023/05/18 12:12:16;;;;;;;7.90;3.60;;;;;;;16.83;41.62;102645.31;4935019;29;20035;-91
2023/05/18 12:14:43;;;;;;;13.77;3.97;;;;;;;16.76;41.78;102642.84;4939729;29;20037;-94
2023/05/18 12:17:10;;;;;;;11.07;3.63;;;;;;;16.78;42.76;102648.81;4956904;29;20027;-94
2023/05/18 12:19:47;;;;;;;8.53;3.70;;;;;;;16.81;43.32;102644.75;4953867;28;20047;-93
2023/05/18 12:22:12;;;;;;;9.63;3.83;;;;;;;17.03;42.51;102633.88;4963305;28;20702;-92
2023/05/18 12:24:39;;;;;;;11.68;3.75;;;;;;;17.08;42.18;102641.22;4968481;28;20027;-94
2023/05/18 12:27:08;;;;;;;9.23;4.18;;;;;;;16.88;42.90;102644.56;4954314;29;20440;-95
2023/05/18 12:29:38;;;;;;;8.17;3.67;;;;;;;16.85;40.75;102642.34;4954542;28;20454;-93
2023/05/18 12:32:11;;;;;;;12.43;4.40;;;;;;;16.81;40.67;102644.75;4955394;28;20830;-95
2023/05/18 12:34:38;;;;;;;9.68;3.92;;;;;;;16.70;41.47;102640.34;4955464;28;20019;-95
2023/05/18 12:37:04;;;;;;;10.60;4.13;;;;;;;16.62;40.64;102636.16;4956901;29;20031;-95
2023/05/18 12:39:30;;;;;;;11.30;4.22;;;;;;;16.59;41.24;102636.69;4951500;28;20082;-95
2023/05/18 12:42:09;;;;;;;11.17;3.70;;;;;;;16.77;41.87;102641.75;4954383;28;20027;-96
2023/05/18 12:44:35;;;;;;;12.38;3.95;;;;;;;16.80;40.34;102637.72;4954311;29;20023;-95
2023/05/18 12:47:00;;;;;;;9.77;4.03;;;;;;;16.77;41.49;102632.81;4954453;29;20028;-95
2023/05/18 12:49:26;;;;;;;9.17;4.03;;;;;;;16.88;42.51;102639.97;4951961;28;20066;-94
2023/05/18 12:51:54;;;;;;;10.67;4.00;;;;;;;16.92;42.19;102651.09;4958617;29;20111;-92
2023/05/18 12:54:27;;;;;;;7.77;3.73;;;;;;;16.94;41.38;102638.13;4955712;29;20319;-88
2023/05/18 12:57:00;;;;;;;8.50;3.92;;;;;;;17.32;42.61;102633.59;4959193;28;20034;-90
2023/05/18 12:59:27;;;;;;;7.95;3.75;;;;;;;17.66;40.42;102625.13;4959024;29;20475;-89
2023/05/18 13:01:57;;;;;;;7.00;3.40;;;;;;;18.25;39.50;102628.69;4962548;28;20023;-90
2023/05/18 13:04:22;;;;;;;6.68;3.28;;;;;;;18.80;38.53;102628.28;4971742;28;20553;-90
2023/05/18 13:06:48;;;;;;;5.30;3.50;;;;;;;19.02;37.63;102630.75;4968877;29;20076;-90
2023/05/18 13:09:17;;;;;;;7.25;3.20;;;;;;;19.34;37.58;102617.97;4972145;28;20055;-89
2023/05/18 13:11:47;;;;;;;10.13;3.60;;;;;;;19.65;36.63;102631.50;4964090;29;20043;-90
2023/05/18 13:14:12;;;;;;;6.60;3.30;;;;;;;19.60;36.58;102609.75;4962765;29;20030;-90
2023/05/18 13:16:44;;;;;;;10.23;3.47;;;;;;;19.60;37.28;102613.28;4969890;29;20047;-90
2023/05/18 13:19:10;;;;;;;7.43;3.35;;;;;;;19.77;35.44;102601.28;4954167;29;20018;-90
2023/05/18 13:21:36;;;;;;;7.70;3.53;;;;;;;19.67;36.10;102602.13;4953117;28;20078;-89
2023/05/18 13:24:03;;;;;;;8.65;3.83;;;;;;;19.75;37.21;102598.03;4950990;28;20031;-90
2023/05/18 13:26:29;;;;;;;10.00;3.70;;;;;;;19.63;36.41;102595.59;4952131;29;20034;-91
2023/05/18 13:28:56;;;;;;;10.70;3.40;;;;;;;19.67;36.05;102602.13;4951755;28;20039;-89
2023/05/18 13:31:22;;;;;;;11.38;3.80;;;;;;;19.80;35.72;102604.25;4951738;28;20122;-89
2023/05/18 13:33:50;;;;;;;8.73;3.10;;;;;;;19.66;34.41;102592.34;4935156;29;20034;-92
2023/05/18 13:36:16;;;;;;;9.48;3.70;;;;;;;19.80;34.86;102593.38;4954607;28;20059;-89
2023/05/18 13:38:42;;;;;;;10.27;3.83;;;;;;;19.86;34.80;102593.34;4952355;28;20522;-89
2023/05/18 13:41:10;;;;;;;9.60;3.67;;;;;;;19.63;34.25;102590.16;4952832;28;20027;-91
2023/05/18 13:43:36;;;;;;;12.17;4.93;;;;;;;19.69;33.82;102580.91;4954774;28;20732;-90
2023/05/18 13:46:01;;;;;;;8.20;3.67;;;;;;;19.45;34.88;102576.09;4952560;28;20370;-92
2023/05/18 13:48:29;;;;;;;8.23;3.90;;;;;;;19.19;35.46;102587.00;4946799;29;20394;-92
2023/05/18 13:50:55;;;;;;;12.18;3.40;;;;;;;19.19;35.70;102584.28;4954451;28;20114;-94
2023/05/18 13:53:21;;;;;;;8.77;3.47;;;;;;;19.28;36.51;102578.28;4958188;29;20034;-95
2023/05/18 13:55:46;;;;;;;7.68;3.80;;;;;;;19.09;36.46;102573.44;4940927;29;20383;-94
2023/05/18 13:58:11;;;;;;;11.77;3.10;;;;;;;19.44;36.05;102571.72;4956257;28;20042;-93
2023/05/18 14:00:36;;;;;;;7.20;3.43;;;;;;;19.52;35.76;102573.91;4956779;28;20046;-93
2023/05/18 14:03:02;;;;;;;7.20;3.60;;;;;;;19.45;35.04;102564.38;4957224;28;20450;-96
2023/05/18 14:05:28;;;;;;;7.78;3.53;;;;;;;19.30;35.34;102566.06;4972073;28;20031;-96
2023/05/18 14:07:53;;;;;;;11.33;3.60;;;;;;;19.21;37.83;102562.28;4962619;28;20026;-94
2023/05/18 14:10:19;;;;;;;12.77;4.57;;;;;;;19.30;35.83;102557.91;4959544;29;20035;-95
2023/05/18 14:12:45;;;;;;;8.95;3.60;;;;;;;19.30;35.95;102554.38;4958088;28;20023;-95
2023/05/18 14:15:15;;;;;;;6.53;2.92;;;;;;;19.27;35.31;102553.00;4963579;28;20039;-95
2023/05/18 14:17:41;;;;;;;8.33;3.43;;;;;;;18.80;36.43;102552.25;4951662;29;20038;-95
2023/05/18 14:20:07;;;;;;;7.07;3.20;;;;;;;18.86;36.62;102545.72;4950967;29;20362;-96
2023/05/18 14:22:33;;;;;;;12.32;5.97;;;;;;;18.90;35.86;102538.66;4970669;28;20027;-95
2023/05/18 14:24:59;;;;;;;7.13;3.60;;;;;;;19.08;37.04;102541.13;4964838;28;20101;-95
2023/05/18 14:27:25;;;;;;;10.10;3.45;;;;;;;19.13;36.35;102531.06;4942833;29;20004;-96
2023/05/18 14:29:50;;;;;;;11.15;3.45;;;;;;;18.97;36.96;102540.31;4972720;28;20050;-96
2023/05/18 14:32:19;;;;;;;7.63;3.40;;;;;;;19.02;36.71;102541.13;4976408;28;20071;-95
2023/05/18 14:34:44;;;;;;;9.00;3.58;;;;;;;19.04;36.42;102538.94;4964476;28;20022;-96
2023/05/18 14:37:10;;;;;;;10.43;3.50;;;;;;;18.94;36.71;102529.97;4971146;28;20054;-96
2023/05/18 14:39:37;;;;;;;10.40;3.67;;;;;;;19.19;36.72;102548.94;4968924;28;20035;-96
2023/05/18 14:42:05;;;;;;;8.93;3.47;;;;;;;19.28;36.77;102538.34;4949176;29;20120;-96
2023/05/18 14:44:31;;;;;;;6.28;3.00;;;;;;;19.58;35.93;102533.09;4966644;28;20031;-95
2023/05/18 14:46:56;;;;;;;11.97;3.20;;;;;;;19.48;35.99;102529.31;4960087;29;20123;-94
2023/05/18 14:49:22;;;;;;;13.57;3.35;;;;;;;19.56;36.18;102527.94;4981268;28;20039;-96
2023/05/18 14:51:49;;;;;;;11.52;3.50;;;;;;;19.86;35.30;102539.75;4959645;29;20055;-95
2023/05/18 14:54:17;;;;;;;8.60;3.70;;;;;;;20.04;36.71;102541.06;4955950;29;20119;-95
2023/05/18 14:56:43;;;;;;;19.25;4.25;;;;;;;20.09;34.93;102538.31;4973837;29;20404;-94
2023/05/18 14:59:08;;;;;;;8.53;3.33;;;;;;;20.56;34.10;102535.28;4951020;29;20042;-91
2023/05/18 15:01:34;;;;;;;11.50;3.40;;;;;;;20.94;34.33;102542.88;4957393;28;20055;-89
2023/05/18 15:04:00;;;;;;;10.60;4.88;;;;;;;20.87;33.27;102544.03;4971520;28;20034;-94
2023/05/18 15:06:25;;;;;;;9.93;4.43;;;;;;;21.06;33.98;102534.31;4964423;28;20031;-93
2023/05/18 15:08:51;;;;;;;11.02;4.00;;;;;;;21.18;32.28;102529.28;4965750;28;20467;-94
2023/05/18 15:11:16;;;;;;;8.23;3.03;;;;;;;21.44;33.08;102542.63;4942330;29;20035;-94
2023/05/18 15:16:18;;;;;;;9.88;3.45;;;;;;;21.46;32.49;102526.78;3143461;26;20073;-94
2023/05/18 15:18:44;;;;;;;10.63;3.92;;;;;;;21.24;32.02;102527.31;4999783;28;20029;-95
2023/05/18 15:21:10;;;;;;;11.35;3.72;;;;;;;21.62;33.41;102535.63;4993371;28;20113;-95
2023/05/18 15:23:35;;;;;;;12.77;3.70;;;;;;;22.02;32.35;102536.19;5002383;28;20061;-95
2023/05/18 15:26:02;;;;;;;7.05;3.60;;;;;;;22.53;31.87;102537.34;5002607;28;20042;-95
2023/05/18 15:28:28;;;;;;;8.87;3.57;;;;;;;22.84;30.87;102541.50;5001730;28;20027;-94
2023/05/18 15:30:54;;;;;;;11.10;4.68;;;;;;;22.74;29.93;102539.75;5010239;28;20014;-95
2023/05/18 15:33:19;;;;;;;11.63;3.87;;;;;;;22.66;30.99;102532.22;5026520;28;20010;-96
2023/05/18 15:35:46;;;;;;;11.13;5.68;;;;;;;22.68;30.28;102530.81;5004759;28;20014;-94
2023/05/18 15:38:13;;;;;;;10.47;4.53;;;;;;;22.76;30.75;102526.59;4996963;28;20034;-90
2023/05/18 15:40:38;;;;;;;9.93;3.55;;;;;;;22.91;30.79;102527.44;4999771;28;20034;-87
2023/05/18 15:43:03;;;;;;;7.20;3.80;;;;;;;22.61;28.65;102524.94;4980879;28;20054;-90
2023/05/18 15:45:28;;;;;;;10.97;4.27;;;;;;;22.69;30.48;102523.44;4990284;28;20500;-90
2023/05/18 15:47:54;;;;;;;6.37;3.33;;;;;;;22.49;29.66;102525.41;4996129;28;20061;-93
2023/05/18 15:50:20;;;;;;;11.37;3.67;;;;;;;22.39;29.79;102522.81;4992210;28;20089;-92
2023/05/18 15:52:45;;;;;;;8.15;3.80;;;;;;;21.70;30.39;102520.53;4992763;28;20034;-93
2023/05/18 15:55:11;;;;;;;12.07;3.83;;;;;;;21.51;30.19;102520.47;4992261;28;20058;-92
2023/05/18 15:57:36;;;;;;;11.63;3.70;;;;;;;21.33;31.30;102510.03;4995440;28;20061;-91
2023/05/18 16:00:02;;;;;;;6.83;3.87;;;;;;;21.43;31.26;102508.28;4992596;28;20285;-94
2023/05/18 16:02:27;;;;;;;5.97;3.40;;;;;;;21.63;30.95;102507.25;4993508;28;20034;-95
2023/05/18 16:04:53;;;;;;;8.47;4.07;;;;;;;21.77;30.88;102507.34;4995651;28;20281;-94
2023/05/18 16:07:18;;;;;;;9.30;4.00;;;;;;;21.72;29.82;102504.69;4996833;28;20058;-94
2023/05/18 16:09:44;;;;;;;8.33;3.70;;;;;;;21.24;30.76;102500.88;4999210;28;20058;-94
2023/05/18 16:12:09;;;;;;;10.27;3.72;;;;;;;20.97;31.59;102502.25;4973880;28;20074;-88
2023/05/18 16:14:35;;;;;;;9.40;3.87;;;;;;;20.78;31.70;102493.19;4991264;28;20050;-93